Time;durP1;ratioP1;P1;durP2;ratioP2;P2;SDS_P1;SDS_P2;PMS_P1;PMS_P2;Temp;Humidity;BMP_temperature;BMP_pressure;BME280_temperature;BME280_humidity;BME280_pressure;Samples;Min_cycle;Max_cycle;Signal;HPM_P1;HPM_P2
2021/09/29 00:02:20;;;;;;;7.40;5.20;;;20.70;56.00;;;;;;5079326;28;20278;-47
2021/09/29 00:04:46;;;;;;;5.20;4.67;;;20.90;55.90;;;;;;5078729;28;20297;-47
2021/09/29 00:07:12;;;;;;;5.10;4.70;;;20.90;55.70;;;;;;5073848;28;20568;-47
2021/09/29 00:09:37;;;;;;;6.43;5.20;;;21.00;55.80;;;;;;5083290;28;20257;-47
2021/09/29 00:12:03;;;;;;;6.17;5.57;;;20.90;55.30;;;;;;5075651;28;20203;-48
2021/09/29 00:14:29;;;;;;;5.60;5.20;;;20.80;55.90;;;;;;5079591;28;20199;-48
2021/09/29 00:16:55;;;;;;;5.13;4.73;;;20.70;56.10;;;;;;5073405;28;20317;-48
2021/09/29 00:19:21;;;;;;;6.03;5.53;;;20.80;56.00;;;;;;5082336;28;20214;-47
2021/09/29 00:21:46;;;;;;;7.07;6.47;;;20.80;56.00;;;;;;5078464;28;20711;-50
2021/09/29 00:24:12;;;;;;;7.90;6.40;;;20.90;55.80;;;;;;5073572;28;20228;-47
2021/09/29 00:26:38;;;;;;;5.60;5.10;;;20.90;55.60;;;;;;5070619;28;20678;-47
2021/09/29 00:29:04;;;;;;;7.13;6.53;;;20.90;55.50;;;;;;5080432;28;20239;-48
2021/09/29 00:34:11;;;;;;;6.53;5.40;;;20.80;55.80;;;;;;5075942;28;20631;-49
2021/09/29 00:36:42;;;;;;;6.80;6.20;;;20.90;55.30;;;;;;5077497;28;20449;-47
2021/09/29 00:39:09;;;;;;;5.47;5.00;;;20.70;55.70;;;;;;5072919;28;20448;-47
2021/09/29 00:41:35;;;;;;;6.33;5.73;;;20.70;56.00;;;;;;5072676;28;20437;-47
2021/09/29 00:44:02;;;;;;;7.33;6.13;;;20.70;56.10;;;;;;5074719;28;20489;-47
2021/09/29 00:46:28;;;;;;;5.20;4.80;;;20.70;55.60;;;;;;5078183;28;21384;-46
2021/09/29 00:48:53;;;;;;;6.03;5.43;;;20.40;56.70;;;;;;5076961;28;20437;-47
2021/09/29 00:51:19;;;;;;;9.07;6.53;;;20.50;57.00;;;;;;5080571;28;20309;-48
2021/09/29 00:53:47;;;;;;;6.83;6.10;;;20.50;56.70;;;;;;5075907;28;20200;-48
2021/09/29 00:56:14;;;;;;;7.50;4.70;;;20.50;56.40;;;;;;5076631;28;20203;-49
2021/09/29 00:58:39;;;;;;;6.57;5.97;;;20.30;56.30;;;;;;5070663;28;20442;-50
2021/09/29 01:01:05;;;;;;;7.47;5.47;;;20.10;57.00;;;;;;5078034;28;20502;-47
2021/09/29 01:03:31;;;;;;;6.67;5.97;;;19.80;58.00;;;;;;5080044;28;20246;-47
2021/09/29 01:06:01;;;;;;;6.30;5.80;;;19.90;58.30;;;;;;5068544;28;20191;-47
2021/09/29 01:08:39;;;;;;;6.70;5.57;;;20.10;57.70;;;;;;5074407;28;20460;-47
2021/09/29 01:11:18;;;;;;;6.27;5.80;;;20.10;57.80;;;;;;5073388;28;20446;-48
2021/09/29 01:14:01;;;;;;;6.77;5.97;;;20.10;57.50;;;;;;5077439;28;20978;-49
2021/09/29 01:16:34;;;;;;;5.10;4.70;;;20.30;57.30;;;;;;5077461;28;20794;-49
2021/09/29 01:19:01;;;;;;;6.40;5.80;;;20.10;56.90;;;;;;5070309;28;20511;-48
2021/09/29 01:21:31;;;;;;;5.80;5.40;;;20.30;57.70;;;;;;5076417;28;20528;-47
2021/09/29 01:24:11;;;;;;;6.03;5.17;;;19.80;57.10;;;;;;5080869;28;20959;-47
2021/09/29 01:26:39;;;;;;;5.80;5.30;;;19.70;58.40;;;;;;5075117;28;20456;-52
2021/09/29 01:29:08;;;;;;;6.83;6.17;;;19.80;58.10;;;;;;5074331;28;20878;-50
2021/09/29 01:31:35;;;;;;;6.57;5.87;;;20.00;57.80;;;;;;5060375;28;20862;-48
2021/09/29 01:34:02;;;;;;;5.27;4.80;;;20.10;57.30;;;;;;5056555;28;20922;-48
2021/09/29 01:36:28;;;;;;;6.37;5.37;;;20.10;57.60;;;;;;5054190;28;20438;-47
2021/09/29 01:38:56;;;;;;;6.00;5.40;;;20.20;57.30;;;;;;5052804;28;20439;-49
2021/09/29 01:41:29;;;;;;;7.60;6.90;;;20.30;57.30;;;;;;5048970;28;20852;-48
2021/09/29 01:43:56;;;;;;;8.47;5.47;;;20.40;57.20;;;;;;5054559;28;20886;-48
2021/09/29 01:46:23;;;;;;;5.20;4.77;;;20.40;57.00;;;;;;5054325;28;20434;-51
2021/09/29 01:49:11;;;;;;;6.80;6.20;;;20.10;57.40;;;;;;5054464;28;20911;-49
2021/09/29 01:51:39;;;;;;;5.67;4.73;;;20.10;57.20;;;;;;5054395;28;20445;-48
2021/09/29 01:54:07;;;;;;;6.17;5.57;;;20.00;57.90;;;;;;5055635;28;20468;-50
2021/09/29 01:56:33;;;;;;;7.40;4.90;;;19.80;58.30;;;;;;5060896;28;20477;-51
2021/09/29 01:59:03;;;;;;;6.90;6.00;;;19.80;58.20;;;;;;5061134;28;20443;-49
2021/09/29 02:01:29;;;;;;;5.77;5.27;;;19.60;58.60;;;;;;5052817;28;20477;-48
2021/09/29 02:03:55;;;;;;;6.97;6.27;;;19.70;58.60;;;;;;5059584;28;20497;-48
2021/09/29 02:06:21;;;;;;;5.80;5.30;;;19.80;57.70;;;;;;5049154;28;20442;-53
2021/09/29 02:08:46;;;;;;;5.97;5.47;;;19.90;58.50;;;;;;5052032;28;20442;-47
2021/09/29 02:11:12;;;;;;;6.83;6.13;;;19.90;58.10;;;;;;5053839;28;20275;-46
2021/09/29 02:13:37;;;;;;;6.63;5.40;;;20.00;57.60;;;;;;5057790;28;20206;-46
2021/09/29 02:16:03;;;;;;;5.70;5.20;;;20.10;57.60;;;;;;5064205;28;20551;-47
2021/09/29 02:18:29;;;;;;;6.43;5.83;;;20.20;57.30;;;;;;5057597;28;20200;-47
2021/09/29 02:20:55;;;;;;;5.60;5.10;;;20.30;57.20;;;;;;5059076;28;20589;-48
2021/09/29 02:23:21;;;;;;;8.40;6.17;;;20.20;56.90;;;;;;5055393;28;20235;-49
2021/09/29 02:25:47;;;;;;;6.67;6.03;;;20.20;57.00;;;;;;5052007;28;20552;-49
2021/09/29 02:28:13;;;;;;;5.80;5.27;;;20.20;57.00;;;;;;5055321;28;20510;-47
2021/09/29 02:30:39;;;;;;;6.60;5.93;;;20.40;56.80;;;;;;5069330;28;20434;-47
2021/09/29 02:33:05;;;;;;;6.57;5.87;;;20.50;56.70;;;;;;5074360;28;20203;-50
2021/09/29 02:35:30;;;;;;;6.77;6.00;;;20.60;56.00;;;;;;5078774;28;20279;-47
2021/09/29 02:37:56;;;;;;;6.90;5.40;;;20.60;56.20;;;;;;5075034;28;20525;-47
2021/09/29 02:40:22;;;;;;;6.73;6.23;;;20.60;56.50;;;;;;5073952;28;20210;-50
2021/09/29 02:42:48;;;;;;;6.53;5.93;;;20.60;56.50;;;;;;5075141;28;20245;-49
2021/09/29 02:45:14;;;;;;;6.03;5.50;;;20.60;56.30;;;;;;5078076;28;20827;-48
2021/09/29 02:47:40;;;;;;;7.93;6.00;;;20.70;56.60;;;;;;5076162;28;20488;-48
2021/09/29 02:50:06;;;;;;;7.00;6.43;;;20.60;56.20;;;;;;5073273;28;20453;-48
2021/09/29 02:52:32;;;;;;;5.07;4.63;;;20.60;56.60;;;;;;5077713;28;20198;-48
2021/09/29 02:54:58;;;;;;;9.67;6.60;;;20.70;56.50;;;;;;5081316;28;20441;-50
2021/09/29 02:57:23;;;;;;;8.93;6.07;;;20.70;56.20;;;;;;5071854;28;21008;-47
2021/09/29 02:59:49;;;;;;;7.87;6.93;;;20.80;56.40;;;;;;5069181;28;20195;-49
2021/09/29 03:02:14;;;;;;;6.70;6.07;;;20.80;56.40;;;;;;5072850;28;20194;-47
2021/09/29 03:04:40;;;;;;;6.60;5.87;;;20.80;56.30;;;;;;5076343;28;20629;-48
2021/09/29 03:07:06;;;;;;;5.90;5.50;;;20.80;56.10;;;;;;5071827;28;20195;-49
2021/09/29 03:09:32;;;;;;;6.97;6.27;;;20.80;56.30;;;;;;5071241;28;20188;-47
2021/09/29 03:11:57;;;;;;;6.90;6.30;;;20.80;56.60;;;;;;5077079;28;20197;-48
2021/09/29 03:14:23;;;;;;;7.10;6.50;;;20.80;56.50;;;;;;5080796;28;21947;-46
2021/09/29 03:16:49;;;;;;;8.60;6.07;;;20.90;56.30;;;;;;5075577;28;20544;-50
2021/09/29 03:19:14;;;;;;;6.70;6.00;;;21.00;56.10;;;;;;5074560;28;20194;-47
2021/09/29 03:21:40;;;;;;;5.73;5.23;;;21.00;56.00;;;;;;5075154;28;20222;-47
2021/09/29 03:24:06;;;;;;;5.73;5.23;;;21.00;56.40;;;;;;5084036;28;20228;-48
2021/09/29 03:26:31;;;;;;;9.03;6.27;;;21.00;56.10;;;;;;5071396;28;20184;-52
2021/09/29 03:28:57;;;;;;;6.53;6.03;;;21.10;55.90;;;;;;5076016;28;20263;-50
2021/09/29 03:31:23;;;;;;;6.10;5.50;;;21.10;55.90;;;;;;5081735;28;20206;-47
2021/09/29 03:33:48;;;;;;;5.93;5.53;;;21.10;55.80;;;;;;5077294;28;20203;-51
2021/09/29 03:36:14;;;;;;;6.33;5.20;;;21.20;55.60;;;;;;5076676;28;20582;-47
2021/09/29 03:38:40;;;;;;;6.27;5.60;;;21.20;55.60;;;;;;5074643;28;20196;-50
2021/09/29 03:41:05;;;;;;;6.63;5.40;;;21.20;55.20;;;;;;5075765;28;20227;-48
2021/09/29 03:43:31;;;;;;;6.70;4.83;;;21.10;55.50;;;;;;5076121;28;20223;-48
2021/09/29 03:45:56;;;;;;;5.57;5.03;;;21.00;55.80;;;;;;5076102;28;20196;-48
2021/09/29 03:48:22;;;;;;;6.70;5.97;;;21.00;56.30;;;;;;5080713;28;20237;-48
2021/09/29 03:50:48;;;;;;;7.00;6.30;;;21.00;56.10;;;;;;5077983;28;20611;-53
2021/09/29 03:53:14;;;;;;;7.40;5.87;;;21.00;56.20;;;;;;5074942;28;20529;-48
2021/09/29 03:55:39;;;;;;;9.60;6.00;;;21.00;56.40;;;;;;5076748;28;20214;-47
2021/09/29 03:58:05;;;;;;;7.70;5.93;;;21.00;56.20;;;;;;5076721;28;20316;-48
2021/09/29 04:00:30;;;;;;;5.80;5.10;;;21.10;56.30;;;;;;5077196;28;20258;-50
2021/09/29 04:02:56;;;;;;;6.67;6.03;;;21.10;55.60;;;;;;5073234;28;20669;-46
2021/09/29 04:05:22;;;;;;;7.20;6.50;;;21.20;55.60;;;;;;5072942;28;20190;-47
2021/09/29 04:07:47;;;;;;;7.37;6.70;;;21.20;55.30;;;;;;5078929;28;20253;-52
2021/09/29 04:10:13;;;;;;;5.90;5.30;;;21.30;55.10;;;;;;5072563;28;20199;-50
2021/09/29 04:12:42;;;;;;;6.03;5.43;;;21.40;55.10;;;;;;5076741;28;20555;-48
2021/09/29 04:15:09;;;;;;;6.80;6.20;;;21.40;55.20;;;;;;5081140;28;20194;-47
2021/09/29 04:17:36;;;;;;;7.37;6.63;;;21.50;55.00;;;;;;5072887;28;21261;-48
2021/09/29 04:20:04;;;;;;;5.53;4.70;;;21.50;54.80;;;;;;5077107;28;20819;-47
2021/09/29 04:22:30;;;;;;;6.13;5.07;;;21.50;54.60;;;;;;5073292;28;20545;-50
2021/09/29 04:24:56;;;;;;;6.30;5.80;;;21.50;55.00;;;;;;5082849;28;20651;-47
2021/09/29 04:27:22;;;;;;;6.67;5.77;;;21.60;55.20;;;;;;5084284;28;20269;-47
2021/09/29 04:29:47;;;;;;;6.33;5.80;;;21.60;54.70;;;;;;5073079;28;20634;-47
2021/09/29 04:32:13;;;;;;;6.53;5.90;;;21.60;55.20;;;;;;5074917;28;20434;-50
2021/09/29 04:34:40;;;;;;;6.10;5.50;;;21.70;54.50;;;;;;5072312;28;20196;-48
2021/09/29 04:37:05;;;;;;;7.93;5.47;;;21.70;54.50;;;;;;5072006;28;20475;-48
2021/09/29 04:39:31;;;;;;;6.30;5.70;;;21.70;54.70;;;;;;5072418;28;20497;-52
2021/09/29 04:41:57;;;;;;;8.63;5.50;;;21.70;54.50;;;;;;5083266;28;20275;-46
2021/09/29 04:44:23;;;;;;;6.57;5.53;;;21.70;54.40;;;;;;5073084;28;20289;-51
2021/09/29 04:46:48;;;;;;;6.10;5.53;;;21.60;54.00;;;;;;5079879;28;20573;-48
2021/09/29 04:49:14;;;;;;;5.87;5.33;;;21.60;54.10;;;;;;5073876;28;20191;-47
2021/09/29 04:51:40;;;;;;;5.97;5.30;;;21.60;53.90;;;;;;5077756;28;20204;-47
2021/09/29 04:54:06;;;;;;;5.40;5.00;;;21.60;54.40;;;;;;5072541;28;20218;-48
2021/09/29 04:56:31;;;;;;;6.23;4.87;;;21.60;54.30;;;;;;5075395;28;20204;-48
2021/09/29 04:58:57;;;;;;;5.53;5.13;;;21.70;54.50;;;;;;5080796;28;20434;-50
2021/09/29 05:01:27;;;;;;;6.50;4.83;;;21.70;54.30;;;;;;5082731;28;20195;-50
2021/09/29 05:03:54;;;;;;;6.37;5.00;;;21.70;54.40;;;;;;5073363;28;20496;-48
2021/09/29 05:06:19;;;;;;;6.10;5.10;;;21.70;54.40;;;;;;5076727;28;20966;-47
2021/09/29 05:08:47;;;;;;;4.90;4.53;;;21.80;54.30;;;;;;5076829;28;20449;-47
2021/09/29 05:11:23;;;;;;;19.97;4.70;;;21.70;53.80;;;;;;5077538;28;20199;-50
2021/09/29 05:13:49;;;;;;;6.63;4.50;;;21.60;55.80;;;;;;5074574;28;20446;-49
2021/09/29 05:16:15;;;;;;;7.70;4.67;;;21.70;55.20;;;;;;5074668;28;20496;-50
2021/09/29 05:18:40;;;;;;;4.93;4.50;;;21.70;54.40;;;;;;5073695;28;20444;-49
2021/09/29 05:21:06;;;;;;;4.93;4.43;;;21.80;54.10;;;;;;5079393;28;20536;-50
2021/09/29 05:23:32;;;;;;;6.43;5.13;;;21.80;54.20;;;;;;5074139;28;20675;-48
2021/09/29 05:25:59;;;;;;;4.97;4.40;;;21.80;53.60;;;;;;5079196;28;20187;-49
2021/09/29 05:28:31;;;;;;;5.00;4.60;;;21.80;53.40;;;;;;5076238;28;20258;-48
2021/09/29 05:31:07;;;;;;;7.73;4.60;;;21.80;53.20;;;;;;5073372;28;20491;-52
2021/09/29 05:34:02;;;;;;;7.83;4.63;;;21.80;53.00;;;;;;5082140;28;20544;-52
2021/09/29 05:36:30;;;;;;;9.93;5.00;;;21.80;52.90;;;;;;4999802;28;20453;-53
2021/09/29 05:38:56;;;;;;;5.23;4.40;;;21.80;52.70;;;;;;5086850;28;20508;-54
2021/09/29 05:41:22;;;;;;;5.60;4.77;;;21.80;52.60;;;;;;5083322;28;20512;-53
2021/09/29 05:43:48;;;;;;;6.43;4.20;;;21.80;52.40;;;;;;5083994;28;20228;-51
2021/09/29 05:46:13;;;;;;;5.60;4.70;;;21.80;52.40;;;;;;5072129;28;20985;-52
2021/09/29 05:48:43;;;;;;;5.20;4.80;;;21.80;52.30;;;;;;5075845;28;20200;-52
2021/09/29 05:51:08;;;;;;;6.70;4.40;;;21.80;52.20;;;;;;5089846;28;20199;-50
2021/09/29 05:53:34;;;;;;;5.30;4.60;;;21.70;52.20;;;;;;5080131;28;20441;-50
2021/09/29 05:56:09;;;;;;;5.70;4.50;;;21.70;52.20;;;;;;5082582;28;20191;-50
2021/09/29 05:58:35;;;;;;;4.60;4.00;;;21.70;52.20;;;;;;5060315;28;20541;-49
2021/09/29 06:01:01;;;;;;;6.53;4.20;;;21.70;52.20;;;;;;5084555;28;20437;-48
2021/09/29 06:03:27;;;;;;;4.70;4.23;;;21.60;52.10;;;;;;5076848;28;20257;-49
2021/09/29 06:05:52;;;;;;;6.97;4.50;;;21.50;51.90;;;;;;5086995;28;20650;-47
2021/09/29 06:08:18;;;;;;;4.43;4.03;;;21.40;52.00;;;;;;5081233;28;20286;-49
2021/09/29 06:10:44;;;;;;;4.20;3.77;;;21.40;52.50;;;;;;5078326;28;20634;-48
2021/09/29 06:13:09;;;;;;;5.67;4.43;;;21.30;52.50;;;;;;5080289;28;20226;-50
2021/09/29 06:15:35;;;;;;;6.53;4.40;;;21.40;53.00;;;;;;5078481;28;20665;-47
2021/09/29 06:18:04;;;;;;;7.33;3.60;;;21.50;52.50;;;;;;5085570;28;20199;-48
2021/09/29 06:20:32;;;;;;;6.30;4.10;;;21.60;52.30;;;;;;5088542;28;20204;-47
2021/09/29 06:22:59;;;;;;;4.57;3.57;;;21.60;51.90;;;;;;5091057;28;20437;-46
2021/09/29 06:25:25;;;;;;;4.60;3.70;;;21.70;51.90;;;;;;5090280;28;20429;-47
2021/09/29 06:27:51;;;;;;;4.53;3.83;;;21.80;51.70;;;;;;5091261;28;20520;-48
2021/09/29 06:30:17;;;;;;;5.23;4.27;;;21.90;51.60;;;;;;5080989;28;20440;-47
2021/09/29 06:32:44;;;;;;;6.83;4.23;;;22.00;51.30;;;;;;5089029;28;20517;-51
2021/09/29 06:35:10;;;;;;;4.77;4.00;;;22.20;51.20;;;;;;5083554;28;20429;-46
2021/09/29 06:37:41;;;;;;;5.00;3.27;;;22.30;50.80;;;;;;5082326;28;20505;-48
2021/09/29 06:40:13;;;;;;;4.80;3.80;;;22.30;50.30;;;;;;5073015;28;20882;-46
2021/09/29 06:42:39;;;;;;;5.40;3.10;;;22.50;50.40;;;;;;5081546;28;21102;-50
2021/09/29 06:45:06;;;;;;;3.50;2.87;;;22.70;50.20;;;;;;5078602;28;20593;-48
2021/09/29 06:47:32;;;;;;;5.43;3.30;;;22.80;49.80;;;;;;5083602;28;20183;-47
2021/09/29 06:49:58;;;;;;;4.27;3.23;;;22.80;49.60;;;;;;5084469;28;20521;-47
2021/09/29 06:52:23;;;;;;;4.77;3.37;;;23.00;48.80;;;;;;5088376;28;20850;-48
2021/09/29 06:54:49;;;;;;;4.33;3.93;;;23.00;48.70;;;;;;5082274;28;20195;-48
2021/09/29 06:57:14;;;;;;;3.87;2.60;;;23.20;48.90;;;;;;5085042;28;20183;-47
2021/09/29 06:59:40;;;;;;;3.37;2.60;;;23.30;48.60;;;;;;5092257;28;20202;-49
2021/09/29 07:02:06;;;;;;;3.83;3.17;;;23.40;47.80;;;;;;5087037;28;20620;-48
2021/09/29 07:04:32;;;;;;;3.27;3.07;;;23.50;47.60;;;;;;5080292;28;20271;-48
2021/09/29 07:06:58;;;;;;;3.63;3.10;;;23.60;47.50;;;;;;5078689;28;20445;-47
2021/09/29 07:09:23;;;;;;;3.00;2.73;;;23.70;47.60;;;;;;5083901;28;20627;-46
2021/09/29 07:11:49;;;;;;;3.97;3.20;;;23.80;47.30;;;;;;5084376;28;20437;-47
2021/09/29 07:14:15;;;;;;;4.40;2.70;;;23.70;47.10;;;;;;5086900;28;20700;-47
2021/09/29 07:16:41;;;;;;;4.83;2.63;;;23.60;46.70;;;;;;5074025;28;20253;-48
2021/09/29 07:19:06;;;;;;;4.33;2.37;;;23.70;46.80;;;;;;5077704;28;20442;-47
2021/09/29 07:21:32;;;;;;;3.27;2.23;;;23.70;46.00;;;;;;5080419;28;20200;-48
2021/09/29 07:23:58;;;;;;;5.20;2.90;;;23.70;46.10;;;;;;5073540;28;20227;-47
2021/09/29 07:26:25;;;;;;;2.83;1.90;;;23.70;46.60;;;;;;5073718;28;20208;-49
2021/09/29 07:28:51;;;;;;;4.90;2.07;;;23.20;45.80;;;;;;5073291;28;20477;-47
2021/09/29 07:31:17;;;;;;;1.60;1.37;;;23.00;46.40;;;;;;5078250;28;20448;-48
2021/09/29 07:33:43;;;;;;;2.47;1.90;;;22.80;46.10;;;;;;5072327;28;20238;-50
2021/09/29 07:36:09;;;;;;;5.17;1.90;;;22.60;46.50;;;;;;5072889;28;20430;-47
2021/09/29 07:38:35;;;;;;;2.40;1.67;;;22.20;46.10;;;;;;5073539;28;20286;-48
2021/09/29 07:41:01;;;;;;;4.27;1.57;;;22.30;47.00;;;;;;5085655;28;20525;-47
2021/09/29 07:43:27;;;;;;;3.30;2.20;;;22.30;46.80;;;;;;5073304;28;21062;-47
2021/09/29 07:45:52;;;;;;;4.23;1.80;;;22.40;46.40;;;;;;5073626;28;20202;-48
2021/09/29 07:48:18;;;;;;;3.17;1.50;;;22.40;46.60;;;;;;5073795;28;20188;-47
2021/09/29 07:50:44;;;;;;;2.27;1.50;;;22.40;46.50;;;;;;5074716;28;20218;-47
2021/09/29 07:53:12;;;;;;;2.90;1.60;;;22.40;46.50;;;;;;5085267;28;20249;-50
2021/09/29 07:55:38;;;;;;;2.20;1.47;;;22.40;46.10;;;;;;5073087;28;20430;-48
2021/09/29 07:58:03;;;;;;;1.47;1.37;;;22.10;46.20;;;;;;5086578;28;20508;-48
2021/09/29 08:00:29;;;;;;;2.50;1.60;;;22.20;47.40;;;;;;5078917;28;20238;-49
2021/09/29 08:02:54;;;;;;;2.37;1.73;;;22.30;46.50;;;;;;5076413;28;20689;-47
2021/09/29 08:05:21;;;;;;;4.00;1.67;;;22.20;46.50;;;;;;5072770;28;20195;-47
2021/09/29 08:07:51;;;;;;;2.77;1.30;;;22.40;46.70;;;;;;5073783;28;20196;-47
2021/09/29 08:10:18;;;;;;;2.47;1.53;;;22.60;46.40;;;;;;5072746;28;20430;-48
2021/09/29 08:12:44;;;;;;;2.50;1.60;;;22.50;46.00;;;;;;5078106;28;21069;-50
2021/09/29 08:15:13;;;;;;;2.23;1.60;;;22.20;46.50;;;;;;5085045;28;20441;-46
2021/09/29 08:17:42;;;;;;;3.73;1.47;;;22.00;46.20;;;;;;5083183;28;20230;-46
2021/09/29 08:20:08;;;;;;;1.60;1.50;;;22.10;46.90;;;;;;5089050;28;20782;-46
2021/09/29 08:22:34;;;;;;;2.10;1.33;;;22.40;47.50;;;;;;5087072;28;20433;-46
2021/09/29 08:27:46;;;;;;;2.80;2.27;;;22.40;47.20;;;;;;5079889;28;20196;-47
2021/09/29 08:30:17;;;;;;;1.97;1.50;;;22.60;46.60;;;;;;5080092;28;20512;-47
2021/09/29 08:33:06;;;;;;;1.57;1.40;;;22.80;46.80;;;;;;5077816;28;20449;-46
2021/09/29 08:35:42;;;;;;;2.93;1.50;;;22.70;45.90;;;;;;5090099;28;20461;-46
2021/09/29 08:38:12;;;;;;;3.40;1.10;;;22.70;46.50;;;;;;5086543;28;20433;-46
2021/09/29 08:46:20;;;;;;;2.57;1.57;;;22.50;45.80;;;;;;5080463;28;20440;-48
2021/09/29 09:15:48;;;;;;;1.73;1.27;;;23.30;43.60;;;;;;5076286;28;20441;-46
2021/09/29 09:18:16;;;;;;;3.33;1.47;;;23.50;43.80;;;;;;5079013;28;20425;-47
2021/09/29 09:20:50;;;;;;;1.40;1.10;;;23.70;43.40;;;;;;5081891;28;20506;-47
2021/09/29 09:23:16;;;;;;;1.80;1.10;;;23.80;42.20;;;;;;5078025;28;20860;-47
2021/09/29 09:25:44;;;;;;;2.47;1.23;;;23.90;42.40;;;;;;5079876;28;20425;-48
2021/09/29 09:28:22;;;;;;;2.40;1.30;;;23.90;42.00;;;;;;5081968;28;20231;-47
2021/09/29 09:30:50;;;;;;;3.53;1.30;;;23.90;42.20;;;;;;5083734;28;20429;-48
2021/09/29 09:33:23;;;;;;;2.23;1.30;;;23.70;42.70;;;;;;5081643;28;20457;-46
2021/09/29 09:35:50;;;;;;;2.10;1.20;;;23.90;43.10;;;;;;5074825;28;20984;-47
2021/09/29 09:38:22;;;;;;;1.80;1.40;;;24.00;42.90;;;;;;5081126;28;20944;-49
2021/09/29 09:40:56;;;;;;;3.87;1.30;;;24.10;42.70;;;;;;5086067;28;20425;-47
2021/09/29 09:43:26;;;;;;;2.03;1.30;;;24.20;42.60;;;;;;5083238;28;20475;-50
2021/09/29 09:45:53;;;;;;;6.70;1.50;;;24.30;42.40;;;;;;5082320;28;20444;-51
2021/09/29 09:48:26;;;;;;;3.20;1.40;;;24.30;42.70;;;;;;5081808;28;20469;-51
2021/09/29 09:51:05;;;;;;;5.93;1.50;;;24.30;42.90;;;;;;5084150;28;20437;-49
2021/09/29 09:53:33;;;;;;;1.53;1.20;;;24.30;42.80;;;;;;5081306;28;20525;-50
2021/09/29 09:55:59;;;;;;;2.53;1.00;;;24.20;42.30;;;;;;5089108;28;20471;-47
2021/09/29 09:58:24;;;;;;;3.70;1.30;;;24.30;42.30;;;;;;5088408;28;20473;-48
2021/09/29 10:00:58;;;;;;;1.70;1.30;;;24.10;42.10;;;;;;5086343;28;20234;-46
2021/09/29 10:03:28;;;;;;;4.30;1.27;;;24.10;42.70;;;;;;5087787;28;20211;-47
2021/09/29 10:05:54;;;;;;;1.60;1.00;;;24.10;41.80;;;;;;5087171;28;20465;-48
2021/09/29 10:08:26;;;;;;;1.90;1.30;;;24.00;41.90;;;;;;5078442;28;20492;-47
2021/09/29 10:11:06;;;;;;;3.80;1.37;;;24.00;41.80;;;;;;5080736;28;20445;-47
2021/09/29 10:27:53;;;;;;;2.40;1.37;;;23.90;43.10;;;;;;5043324;28;20438;-48
2021/09/29 10:30:56;;;;;;;1.87;1.60;;;24.10;42.20;;;;;;5079812;28;20470;-49
2021/09/29 10:33:26;;;;;;;4.77;1.20;;;24.30;42.50;;;;;;5075131;28;20945;-48
2021/09/29 10:44:30;;;;;;;2.10;0.87;;;24.20;41.30;;;;;;5085114;28;20489;-49
2021/09/29 11:29:42;;;;;;;4.63;1.20;;;22.80;43.00;;;;;;5079280;28;20523;-50
2021/09/29 11:32:18;;;;;;;2.83;1.33;;;22.90;43.70;;;;;;5082167;28;20458;-49
2021/09/29 11:34:43;;;;;;;2.23;1.30;;;23.30;43.70;;;;;;5078894;28;20448;-48
2021/09/29 11:39:59;;;;;;;2.77;1.47;;;23.90;42.40;;;;;;5078934;28;20219;-47
2021/09/29 12:10:16;;;;;;;1.80;0.80;;;24.50;40.60;;;;;;5086424;28;20986;-48
2021/09/29 12:12:49;;;;;;;1.60;1.07;;;24.40;40.50;;;;;;5090917;28;21087;-47
2021/09/29 12:15:15;;;;;;;1.93;1.27;;;24.20;40.50;;;;;;5083671;28;20924;-49
2021/09/29 12:17:41;;;;;;;6.10;1.33;;;23.90;40.80;;;;;;5086215;28;20433;-47
2021/09/29 12:20:30;;;;;;;1.33;1.03;;;24.10;41.10;;;;;;5076657;28;20192;-47
2021/09/29 12:22:58;;;;;;;4.27;1.20;;;24.00;40.00;;;;;;5084200;28;20222;-46
2021/09/29 12:28:57;;;;;;;4.73;0.80;;;24.10;40.20;;;;;;5086051;28;20539;-50
2021/09/29 12:36:28;;;;;;;1.53;1.00;;;24.80;39.60;;;;;;5076825;28;20434;-50
2021/09/29 12:38:54;;;;;;;5.60;1.13;;;24.60;38.50;;;;;;5086247;28;20437;-49
2021/09/29 12:41:20;;;;;;;2.90;1.20;;;24.60;39.70;;;;;;5070414;28;20491;-51
2021/09/29 12:43:45;;;;;;;1.93;0.97;;;24.80;38.90;;;;;;5079356;28;20224;-47
2021/09/29 12:46:17;;;;;;;4.30;1.30;;;25.00;38.60;;;;;;5073568;28;20558;-47
2021/09/29 12:48:43;;;;;;;3.23;1.40;;;25.00;38.50;;;;;;5078465;28;20248;-46
2021/09/29 12:51:13;;;;;;;1.30;1.00;;;25.00;38.50;;;;;;5089851;28;20430;-51
2021/09/29 12:56:18;;;;;;;4.93;1.60;;;24.90;38.90;;;;;;5082644;28;20422;-46
2021/09/29 12:58:44;;;;;;;3.23;1.03;;;24.50;39.20;;;;;;5086199;28;20194;-47
2021/09/29 13:01:10;;;;;;;2.07;1.50;;;24.50;39.90;;;;;;5087931;28;20936;-46
2021/09/29 13:03:36;;;;;;;1.93;0.87;;;24.60;39.70;;;;;;5085719;28;20490;-47
2021/09/29 13:06:02;;;;;;;1.77;0.70;;;24.40;39.70;;;;;;5087427;28;20658;-49
2021/09/29 13:08:28;;;;;;;1.90;0.90;;;24.30;39.90;;;;;;5086534;28;20202;-49
2021/09/29 13:10:55;;;;;;;3.70;1.33;;;24.30;40.20;;;;;;5082050;28;20240;-46
2021/09/29 13:13:21;;;;;;;3.23;1.00;;;24.20;40.40;;;;;;5081743;28;20948;-48
2021/09/29 13:15:51;;;;;;;5.50;1.90;;;24.10;40.10;;;;;;5090548;28;20441;-47
2021/09/29 13:24:01;;;;;;;4.60;1.03;;;23.60;41.50;;;;;;5083547;28;20495;-48
2021/09/29 13:26:59;;;;;;;2.53;1.30;;;23.50;41.80;;;;;;5086591;28;20433;-48
2021/09/29 13:37:25;;;;;;;3.03;1.13;;;23.80;41.90;;;;;;5086972;28;20494;-48
2021/09/29 13:39:51;;;;;;;2.10;0.97;;;23.70;41.10;;;;;;5085420;28;20433;-51
2021/09/29 13:42:18;;;;;;;1.77;0.90;;;23.50;41.70;;;;;;5087541;28;20198;-50
2021/09/29 13:44:43;;;;;;;3.53;1.10;;;23.40;42.10;;;;;;5084311;28;20222;-47
2021/09/29 13:47:09;;;;;;;2.47;1.10;;;23.10;42.40;;;;;;5089269;28;20440;-47
2021/09/29 13:49:35;;;;;;;4.50;1.20;;;22.90;43.10;;;;;;5084443;28;20187;-47
2021/09/29 13:52:00;;;;;;;5.33;1.90;;;22.80;43.90;;;;;;5089697;28;20641;-47
2021/09/29 13:54:27;;;;;;;4.67;1.20;;;22.10;45.60;;;;;;5088293;28;20206;-47
2021/09/29 14:34:04;;;;;;;1.63;0.63;;;20.90;55.50;;;;;;5083376;28;20441;-49
2021/09/29 14:36:30;;;;;;;1.23;0.80;;;21.00;54.20;;;;;;5091109;28;20228;-49
2021/09/29 14:38:56;;;;;;;0.60;0.60;;;21.00;53.10;;;;;;5090236;28;20191;-47
2021/09/29 14:41:21;;;;;;;1.10;0.60;;;21.00;52.10;;;;;;5074950;28;20273;-46
2021/09/29 14:43:47;;;;;;;0.57;0.57;;;20.60;50.70;;;;;;5082620;28;20207;-48
2021/09/29 14:46:13;;;;;;;1.10;0.70;;;20.20;51.10;;;;;;5084179;28;20559;-48
2021/09/29 14:48:39;;;;;;;0.80;0.60;;;20.10;52.10;;;;;;5083288;28;20577;-49
2021/09/29 14:51:08;;;;;;;1.23;0.70;;;19.70;53.80;;;;;;5079443;28;20230;-47
2021/09/29 14:53:38;;;;;;;0.50;0.50;;;19.50;54.70;;;;;;5086412;28;20191;-51
2021/09/29 14:56:06;;;;;;;0.60;0.60;;;19.50;56.60;;;;;;5085035;28;20434;-52
2021/09/29 14:58:37;;;;;;;0.70;0.60;;;19.50;56.50;;;;;;5078755;28;20476;-50
2021/09/29 15:01:03;;;;;;;0.80;0.67;;;19.60;56.90;;;;;;5073790;28;20430;-49
2021/09/29 15:03:29;;;;;;;0.70;0.67;;;19.70;56.80;;;;;;5076540;28;20594;-48
2021/09/29 15:05:54;;;;;;;0.83;0.70;;;19.50;56.30;;;;;;5071673;28;21218;-48
2021/09/29 15:08:21;;;;;;;0.63;0.63;;;19.50;57.20;;;;;;5071826;28;20199;-48
2021/09/29 15:10:47;;;;;;;0.90;0.60;;;19.70;57.20;;;;;;5074613;28;20708;-48
2021/09/29 15:13:15;;;;;;;0.97;0.87;;;19.40;55.30;;;;;;5074214;28;20429;-48
2021/09/29 15:16:18;;;;;;;4.10;0.80;;;19.40;56.10;;;;;;5092934;28;20444;-48
2021/09/29 15:26:49;;;;;;;1.00;0.80;;;19.00;56.30;;;;;;5072989;28;20455;-47
2021/09/29 15:48:24;;;;;;;4.30;1.00;;;19.80;55.60;;;;;;5080005;28;20428;-49
2021/09/29 15:51:06;;;;;;;0.83;0.80;;;19.90;55.40;;;;;;5094048;28;20437;-48
2021/09/29 15:56:38;;;;;;;0.87;0.80;;;19.90;54.80;;;;;;5084939;28;20440;-48
2021/09/29 16:01:37;;;;;;;2.77;0.60;;;19.80;53.60;;;;;;5093631;28;20510;-48
2021/09/29 16:09:34;;;;;;;1.50;0.77;;;19.90;53.20;;;;;;5079776;28;20195;-48
2021/09/29 16:30:12;;;;;;;1.07;0.77;;;20.50;51.00;;;;;;5079035;28;20502;-49
2021/09/29 16:35:12;;;;;;;1.00;0.70;;;20.40;50.50;;;;;;5092551;28;20448;-48
2021/09/29 16:37:38;;;;;;;1.37;0.80;;;20.30;50.50;;;;;;5088338;28;20874;-48
2021/09/29 16:40:05;;;;;;;1.30;0.70;;;20.30;50.50;;;;;;5074717;28;20458;-48
2021/09/29 16:42:30;;;;;;;1.10;0.90;;;20.30;50.50;;;;;;5075968;28;20188;-48
2021/09/29 16:44:58;;;;;;;1.00;0.80;;;20.10;50.80;;;;;;5071947;28;20481;-48
2021/09/29 16:47:25;;;;;;;1.60;0.80;;;20.00;51.30;;;;;;5077731;28;20196;-48
2021/09/29 16:49:50;;;;;;;1.40;0.87;;;19.80;51.10;;;;;;5077796;28;20486;-50
2021/09/29 16:54:49;;;;;;;1.77;1.10;;;19.80;51.70;;;;;;5081995;28;20620;-49
2021/09/29 16:57:18;;;;;;;1.37;1.00;;;19.90;51.70;;;;;;5078807;28;20977;-49
2021/09/29 16:59:59;;;;;;;0.87;0.70;;;19.80;51.70;;;;;;5079420;28;20426;-48
2021/09/29 17:02:25;;;;;;;1.50;0.97;;;19.80;52.00;;;;;;5086442;28;20520;-48
2021/09/29 17:04:50;;;;;;;0.80;0.80;;;19.80;52.30;;;;;;5080614;28;20568;-49
2021/09/29 17:07:16;;;;;;;1.37;1.00;;;19.90;52.20;;;;;;5086477;28;20191;-48
2021/09/29 17:09:42;;;;;;;1.13;0.87;;;19.90;52.10;;;;;;5088960;28;20223;-49